createdAt,value
2023-01-23T00:07:20.471Z,23.87
2023-01-23T00:17:22.253Z,23.88
2023-01-23T00:27:23.999Z,23.88
2023-01-23T00:37:25.821Z,23.89
2023-01-23T00:47:27.547Z,23.85
2023-01-23T00:57:30.314Z,23.88
2023-01-23T01:07:32.112Z,23.87
2023-01-23T01:17:33.899Z,23.86
2023-01-23T01:27:35.632Z,23.87
2023-01-23T01:37:39.236Z,23.86
2023-01-23T01:47:41.003Z,23.85
2023-01-23T01:57:44.577Z,23.88
2023-01-23T02:07:57.315Z,23.90
2023-01-23T02:17:59.082Z,23.91
2023-01-23T02:28:01.858Z,23.92
2023-01-23T02:38:05.894Z,23.90
2023-01-23T02:48:08.782Z,23.86
2023-01-23T02:58:31.791Z,23.85
2023-01-23T03:08:36.085Z,23.82
2023-01-23T03:18:52.776Z,23.82
2023-01-23T03:29:13.875Z,23.82
2023-01-23T03:39:34.426Z,23.84
2023-01-23T03:49:36.386Z,23.83
2023-01-23T03:59:38.335Z,23.83
2023-01-23T04:09:41.277Z,23.83
2023-01-23T04:19:43.569Z,23.84
2023-01-23T04:29:47.833Z,23.84
2023-01-23T04:39:49.746Z,23.83
2023-01-23T04:49:51.824Z,23.82
2023-01-23T04:59:54.177Z,23.81
2023-01-23T05:09:57.197Z,23.62
2023-01-23T05:19:59.376Z,23.58
2023-01-23T05:30:01.217Z,23.55
2023-01-23T05:40:08.969Z,23.57
2023-01-23T05:50:32.754Z,23.55
2023-01-23T06:00:36.036Z,23.56
2023-01-23T06:11:13.229Z,23.55
2023-01-23T06:21:18.174Z,23.55
2023-01-23T06:31:20.160Z,23.57
2023-01-23T06:41:27.380Z,23.57
2023-01-23T06:51:29.833Z,23.57
2023-01-23T07:01:32.754Z,23.57
2023-01-23T07:12:03.949Z,23.59
2023-01-23T07:22:07.046Z,23.60
2023-01-23T07:32:10.924Z,23.62
2023-01-23T07:42:13.287Z,23.62
2023-01-23T07:52:16.778Z,23.65
2023-01-23T08:02:18.575Z,23.63
2023-01-23T08:12:21.472Z,23.63
2023-01-23T08:22:23.274Z,23.66
2023-01-23T08:32:25.092Z,23.64
2023-01-23T08:42:27.238Z,23.64
2023-01-23T08:52:29.496Z,23.68
2023-01-23T09:02:31.409Z,23.72
2023-01-23T09:12:33.243Z,23.67
2023-01-23T09:22:35.013Z,23.71
2023-01-23T09:32:36.855Z,23.72
2023-01-23T09:42:38.627Z,23.71
2023-01-23T09:52:48.274Z,23.76
2023-01-23T10:02:50.127Z,23.78
2023-01-23T10:13:11.505Z,23.72
2023-01-23T10:23:23.643Z,23.68
2023-01-23T10:33:39.429Z,23.74
2023-01-23T10:43:42.081Z,23.75
2023-01-23T10:53:43.822Z,23.74
2023-01-23T11:03:45.623Z,23.74
2023-01-23T11:13:48.865Z,23.77
2023-01-23T11:24:15.883Z,23.77
2023-01-23T11:34:17.783Z,23.78
2023-01-23T11:44:23.349Z,23.83
2023-01-23T11:54:38.072Z,23.82
2023-01-23T12:05:36.535Z,23.83
2023-01-23T12:15:55.720Z,23.87
2023-01-23T12:26:22.332Z,23.90
2023-01-23T12:36:35.418Z,23.91
2023-01-23T12:47:05.895Z,23.93
2023-01-23T12:57:08.607Z,23.91
2023-01-23T13:07:37.894Z,23.93
2023-01-23T13:17:51.971Z,23.92
2023-01-23T13:27:59.738Z,23.94
2023-01-23T13:38:01.571Z,23.93
2023-01-23T14:30:27.302Z,23.96
2023-01-23T14:40:35.343Z,24.00
2023-01-23T14:50:39.488Z,23.98
2023-01-23T15:00:41.297Z,24.00
2023-01-23T15:10:42.928Z,23.99
2023-01-23T15:20:44.831Z,23.98
2023-01-23T15:30:48.381Z,24.00
2023-01-23T15:40:50.544Z,24.00
2023-01-23T15:50:52.303Z,24.00
2023-01-23T16:00:54.092Z,24.03
2023-01-23T16:10:56.042Z,24.03
2023-01-23T16:20:57.845Z,24.11
2023-01-23T16:30:59.660Z,24.09
2023-01-23T16:41:01.612Z,24.05
2023-01-23T16:51:13.726Z,24.05
2023-01-23T17:01:21.627Z,24.09
2023-01-23T17:11:27.363Z,24.05
2023-01-23T17:21:33.448Z,24.03
2023-01-23T17:31:35.776Z,24.06
2023-01-23T17:41:37.809Z,24.03
2023-01-23T17:51:43.614Z,24.09
2023-01-23T18:01:45.474Z,24.11
2023-01-23T18:11:52.110Z,24.14
2023-01-23T18:21:55.805Z,24.21
2023-01-23T18:32:18.851Z,24.21
2023-01-23T18:43:09.733Z,24.24
2023-01-23T18:54:11.732Z,24.22
2023-01-23T19:04:14.583Z,24.23
2023-01-23T19:14:48.737Z,24.27
2023-01-23T19:24:50.848Z,24.25
2023-01-23T19:34:53.739Z,24.24
2023-01-23T19:44:56.735Z,24.23
2023-01-23T19:54:58.504Z,24.20
2023-01-23T20:05:00.354Z,24.20
2023-01-23T20:15:02.114Z,24.15
2023-01-23T20:25:05.266Z,24.06
2023-01-23T20:35:07.900Z,24.16
2023-01-23T20:45:10.183Z,24.20
2023-01-23T20:55:11.941Z,24.18
2023-01-23T21:05:13.698Z,24.20
2023-01-23T21:15:15.602Z,24.20
2023-01-23T21:25:17.439Z,24.20
2023-01-23T21:35:19.490Z,24.22
2023-01-23T21:45:21.726Z,24.23
2023-01-23T21:55:23.918Z,24.16
2023-01-23T22:05:25.654Z,24.09
2023-01-23T22:15:27.446Z,24.02
2023-01-23T22:25:29.225Z,23.97
2023-01-23T22:35:31.007Z,23.94
2023-01-23T22:45:32.942Z,23.88
2023-01-23T22:55:37.473Z,23.85
2023-01-23T23:05:39.265Z,23.84
2023-01-23T23:15:41.094Z,23.80
2023-01-23T23:25:42.912Z,23.77
2023-01-23T23:35:44.816Z,23.74
2023-01-23T23:45:54.067Z,23.72
2023-01-23T23:55:55.893Z,23.70
